Date,TemperatureHighF,TemperatureAvgF,TemperatureLowF,DewpointHighF,DewpointAvgF,DewpointLowF,HumidityHigh,HumidityAvg,HumidityLow,PressureMaxIn,PressureMinIn,WindSpeedMaxMPH,WindSpeedAvgMPH,GustSpeedMaxMPH,PrecipitationSumIn
2013-2-1,27,22,16,15,9,4,67,56,46,30.10,29.58,11,4,0,0.00
2013-2-2,24,18,10,15,6,2,83,60,46,30.26,30.07,11,2,0,0.00
2013-2-3,24,20,11,19,16,9,100,85,75,30.08,29.76,4,0,0,0.00
2013-2-4,23,18,13,13,10,6,91,71,53,29.96,29.76,7,2,0,0.00
2013-2-5,27,20,15,18,12,7,91,73,57,30.04,29.95,6,1,0,0.00
2013-2-6,32,24,18,24,16,4,94,74,50,30.31,29.94,8,2,0,0.01
2013-2-7,26,18,7,7,4,2,87,56,41,30.55,30.32,7,1,0,0.00
2013-2-8,22,19,14,20,15,7,93,85,57,30.50,29.70,18,5,0,0.00
2013-2-9,19,14,9,17,12,6,93,91,88,30.25,29.68,22,5,0,0.00
2013-2-10,31,16,4,24,12,1,89,83,68,30.47,30.25,9,1,0,0.07
2013-2-11,41,26,10,41,24,7,99,91,76,30.39,29.75,6,1,0,0.26
2013-2-12,38,34,31,33,28,24,99,80,69,29.90,29.66,10,4,0,0.00
2013-2-13,37,31,27,25,23,22,84,73,58,29.88,29.75,6,2,0,0.00
2013-2-14,39,28,19,24,21,17,95,76,50,29.93,29.73,7,0,0,0.00
2013-2-15,47,39,27,32,30,25,94,71,54,30.00,29.93,18,3,0,0.00
2013-2-16,36,30,24,28,24,15,95,80,61,29.98,29.75,8,1,0,0.11
2013-2-17,23,17,11,13,6,0,86,62,51,29.75,29.46,20,5,0,0.00
2013-2-18,26,16,8,4,1,-2,66,52,35,30.20,29.75,15,4,0,0.00
2013-2-19,42,30,13,39,23,2,97,75,56,30.22,29.61,16,2,0,0.23
2013-2-20,35,26,21,35,18,10,97,73,53,29.81,29.59,15,4,0,0.01
2013-2-21,29,22,18,16,13,9,83,68,55,30.28,29.79,22,4,0,0.01
2013-2-22,36,27,14,22,18,11,93,72,51,30.42,30.28,10,1,0,0.00
2013-2-23,32,30,27,30,27,22,97,88,79,30.35,29.93,8,1,0,0.00
2013-2-24,32,31,29,32,30,29,98,97,95,29.92,29.75,9,2,0,0.27
2013-2-25,35,30,23,32,29,22,98,95,90,30.27,29.92,3,0,0,0.15
2013-2-26,38,33,30,33,30,27,98,87,72,30.35,30.16,10,2,0,0.26
2013-2-27,38,33,31,37,32,28,98,96,88,30.17,29.61,21,8,0,1.23
2013-2-28,40,33,29,37,32,29,98,96,90,29.65,29.57,7,0,0,0.07